Time;durP1;ratioP1;P1;durP2;ratioP2;P2;SDS_P1;SDS_P2;PMS_P1;PMS_P2;Temp;Humidity;BMP_temperature;BMP_pressure;BME280_temperature;BME280_humidity;BME280_pressure;Samples;Min_cycle;Max_cycle;Signal;HPM_P1;HPM_P2
2021/11/08 00:00:31;;;;;;;0.40;0.40;;;;;;;9.44;65.40;99872.11;111825;1195;95342;-76
2021/11/08 00:03:12;;;;;;;0.40;0.40;;;;;;;9.31;65.61;99873.72;111692;1193;137671;-75
2021/11/08 00:05:42;;;;;;;0.50;0.40;;;;;;;9.25;65.78;99875.70;112016;1195;107637;-76
2021/11/08 00:08:13;;;;;;;0.40;0.40;;;;;;;9.30;65.63;99873.76;111816;1195;109039;-77
2021/11/08 00:10:41;;;;;;;0.50;0.40;;;;;;;9.30;65.68;99873.42;111936;1194;137759;-77
2021/11/08 00:13:10;;;;;;;0.40;0.40;;;;;;;9.27;65.50;99876.70;111639;1195;95066;-76
2021/11/08 00:15:49;;;;;;;0.40;0.40;;;;;;;9.22;65.71;99877.02;111599;1196;138866;-75
2021/11/08 00:18:28;;;;;;;0.40;0.40;;;;;;;9.23;65.78;99884.96;111699;1194;109958;-76
2021/11/08 00:20:58;;;;;;;0.40;0.40;;;;;;;9.21;65.75;99886.25;111813;1194;137234;-77
2021/11/08 00:23:27;;;;;;;0.40;0.40;;;;;;;9.20;65.74;99885.56;111885;1195;94894;-76
2021/11/08 00:26:01;;;;;;;0.40;0.40;;;;;;;9.15;65.79;99889.44;111847;1195;108471;-77
2021/11/08 00:28:29;;;;;;;0.40;0.40;;;;;;;9.19;65.73;99894.08;111544;1195;138930;-76
2021/11/08 00:30:57;;;;;;;0.40;0.40;;;;;;;9.18;65.87;99897.31;111911;1195;95860;-76
2021/11/08 00:33:25;;;;;;;0.40;0.40;;;;;;;9.20;65.94;99895.30;111473;1195;140369;-74
2021/11/08 00:36:00;;;;;;;0.50;0.40;;;;;;;9.17;66.03;99897.67;111575;1195;108369;-75
2021/11/08 00:38:28;;;;;;;0.40;0.40;;;;;;;9.10;66.30;99900.55;111504;1195;139066;-74
2021/11/08 00:40:58;;;;;;;0.40;0.40;;;;;;;9.08;66.37;99902.02;111463;1197;94914;-76
2021/11/08 00:43:26;;;;;;;0.50;0.40;;;;;;;9.10;66.65;99901.08;111588;1193;95424;-74
2021/11/08 00:45:54;;;;;;;0.40;0.40;;;;;;;9.04;66.70;99904.44;111453;1193;137889;-75
2021/11/08 00:48:24;;;;;;;0.50;0.40;;;;;;;9.02;67.03;99905.71;111628;1195;109595;-75
2021/11/08 00:50:53;;;;;;;0.40;0.30;;;;;;;9.09;66.95;99906.05;111582;1193;138966;-77
2021/11/08 00:53:22;;;;;;;0.40;0.40;;;;;;;9.15;66.91;99907.48;111646;1199;94891;-75
2021/11/08 00:55:51;;;;;;;0.40;0.40;;;;;;;9.16;66.83;99908.88;111640;1195;107522;-75
2021/11/08 00:58:28;;;;;;;0.40;0.40;;;;;;;9.21;67.01;99909.64;111771;1193;137837;-74
2021/11/08 01:01:01;;;;;;;0.50;0.40;;;;;;;9.27;66.63;99913.18;111721;1193;94921;-76
2021/11/08 01:03:31;;;;;;;0.40;0.40;;;;;;;9.28;66.69;99915.09;111526;1193;139623;-76
2021/11/08 01:05:59;;;;;;;0.40;0.40;;;;;;;9.23;66.77;99916.48;111595;1195;106175;-75
2021/11/08 01:08:27;;;;;;;0.40;0.40;;;;;;;9.17;66.92;99913.99;111544;1196;140851;-75
2021/11/08 01:10:54;;;;;;;0.50;0.40;;;;;;;9.16;67.01;99913.30;111661;1195;95267;-75
2021/11/08 01:13:24;;;;;;;0.40;0.40;;;;;;;9.18;66.86;99914.14;111546;1195;94947;-75
2021/11/08 01:15:54;;;;;;;0.40;0.40;;;;;;;9.18;66.94;99914.65;111587;1195;137305;-75
2021/11/08 01:18:22;;;;;;;0.50;0.40;;;;;;;9.17;66.91;99922.85;111688;1194;109516;-75
2021/11/08 01:20:50;;;;;;;0.40;0.40;;;;;;;9.20;66.90;99924.35;111391;1195;138750;-75
2021/11/08 01:23:22;;;;;;;0.40;0.30;;;;;;;9.25;66.70;99928.10;111636;1193;95874;-76
2021/11/08 01:26:25;;;;;;;0.40;0.40;;;;;;;9.30;66.48;99928.86;112553;1194;108038;-76
2021/11/08 01:28:47;;;;;;;0.40;0.40;;;;;;;9.33;66.44;99929.13;111575;1195;139130;-75
2021/11/08 01:31:17;;;;;;;0.40;0.40;;;;;;;9.35;66.36;99932.61;111326;1195;96568;-74
2021/11/08 01:33:49;;;;;;;0.40;0.40;;;;;;;9.30;66.41;99927.63;111749;1195;137703;-76
2021/11/08 01:36:23;;;;;;;0.40;0.40;;;;;;;9.25;66.43;99929.00;111789;1195;107627;-76
2021/11/08 01:38:54;;;;;;;0.40;0.40;;;;;;;9.24;66.68;99929.39;111829;1193;139234;-76
2021/11/08 01:41:26;;;;;;;0.50;0.40;;;;;;;9.20;66.88;99930.55;111868;1193;94927;-76
2021/11/08 01:43:58;;;;;;;0.50;0.50;;;;;;;9.18;67.16;99931.84;111729;1193;95327;-76
2021/11/08 01:46:25;;;;;;;0.40;0.40;;;;;;;9.17;67.12;99929.40;111661;1194;138310;-76
2021/11/08 01:48:53;;;;;;;0.50;0.40;;;;;;;9.16;67.29;99932.80;111684;1195;109005;-76
2021/11/08 01:51:21;;;;;;;0.50;0.40;;;;;;;9.17;67.39;99937.35;111700;1193;138919;-76
2021/11/08 01:53:49;;;;;;;0.40;0.30;;;;;;;9.17;67.50;99938.96;111738;1196;94985;-76
2021/11/08 01:56:17;;;;;;;0.50;0.40;;;;;;;9.20;67.45;99938.69;111723;1193;108567;-76
2021/11/08 01:58:46;;;;;;;0.50;0.40;;;;;;;9.17;67.62;99940.72;111829;1195;137431;-77
2021/11/08 02:01:14;;;;;;;0.50;0.40;;;;;;;9.21;67.61;99939.57;111845;1194;95838;-74
2021/11/08 02:03:43;;;;;;;0.40;0.40;;;;;;;9.22;67.72;99940.95;111524;1193;138047;-75
2021/11/08 02:06:12;;;;;;;0.40;0.40;;;;;;;9.25;67.83;99941.25;111606;1194;107393;-74
2021/11/08 02:08:40;;;;;;;0.50;0.40;;;;;;;9.32;67.66;99941.55;111443;1194;138148;-75
2021/11/08 02:11:08;;;;;;;0.50;0.40;;;;;;;9.38;67.66;99944.58;111359;1195;96360;-73
2021/11/08 02:13:37;;;;;;;0.50;0.40;;;;;;;9.40;67.41;99943.45;111554;1193;94990;-76
2021/11/08 02:16:07;;;;;;;0.40;0.40;;;;;;;9.37;67.54;99949.73;111249;1195;139385;-74
2021/11/08 02:18:36;;;;;;;0.50;0.40;;;;;;;9.38;67.39;99952.00;111651;1195;107484;-74
2021/11/08 02:21:08;;;;;;;0.50;0.40;;;;;;;9.35;67.57;99949.98;111556;1194;139195;-74
2021/11/08 02:23:37;;;;;;;0.40;0.40;;;;;;;9.36;67.65;99954.39;111558;1193;94873;-75
2021/11/08 02:26:09;;;;;;;0.40;0.40;;;;;;;9.36;67.54;99954.38;111616;1193;108806;-75
2021/11/08 02:28:37;;;;;;;0.50;0.40;;;;;;;9.39;67.50;99956.23;111334;1195;138491;-77
2021/11/08 02:31:06;;;;;;;0.40;0.30;;;;;;;9.39;67.49;99954.28;111547;1196;95392;-75
2021/11/08 02:33:34;;;;;;;0.40;0.40;;;;;;;9.37;67.56;99955.05;111509;1194;139133;-76
2021/11/08 02:36:02;;;;;;;0.40;0.40;;;;;;;9.34;67.70;99951.94;111403;1197;107459;-75
2021/11/08 02:38:30;;;;;;;0.40;0.40;;;;;;;9.36;67.63;99949.23;111384;1195;138032;-75
2021/11/08 02:40:59;;;;;;;0.40;0.40;;;;;;;9.36;67.60;99954.72;111500;1197;96286;-74
2021/11/08 02:43:27;;;;;;;0.40;0.40;;;;;;;9.34;67.81;99950.16;111666;1195;94852;-75
2021/11/08 02:46:15;;;;;;;0.40;0.40;;;;;;;9.30;67.91;99947.81;111433;1195;139264;-75
2021/11/08 02:48:46;;;;;;;0.40;0.40;;;;;;;9.31;67.72;99947.07;111538;1194;109382;-76
2021/11/08 02:51:22;;;;;;;0.40;0.40;;;;;;;9.31;67.85;99950.60;111558;1194;138552;-75
2021/11/08 02:53:55;;;;;;;0.40;0.40;;;;;;;9.33;67.76;99959.23;111807;1193;95338;-76
2021/11/08 02:56:22;;;;;;;0.50;0.40;;;;;;;9.32;67.68;99960.68;111948;1193;138119;-76
2021/11/08 02:58:50;;;;;;;0.40;0.40;;;;;;;9.35;67.57;99965.02;111553;1194;108485;-75
2021/11/08 03:01:21;;;;;;;0.40;0.40;;;;;;;9.31;67.72;99971.00;111852;1195;95549;-76
2021/11/08 03:03:56;;;;;;;0.40;0.40;;;;;;;9.27;67.83;99973.59;111656;1193;137731;-76
2021/11/08 03:06:32;;;;;;;0.40;0.40;;;;;;;9.25;67.89;99973.83;111647;1194;108611;-76
2021/11/08 03:09:10;;;;;;;0.40;0.30;;;;;;;9.27;67.91;99983.16;111682;1195;139283;-75
2021/11/08 03:11:38;;;;;;;0.40;0.40;;;;;;;9.27;67.95;99976.95;111632;1195;94971;-76
2021/11/08 03:14:07;;;;;;;0.40;0.40;;;;;;;9.25;67.92;99984.29;111750;1193;96234;-76
2021/11/08 03:19:14;;;;;;;0.40;0.40;;;;;;;9.33;67.77;99983.15;111839;1193;110325;-76
2021/11/08 03:21:43;;;;;;;0.40;0.40;;;;;;;9.36;67.63;99983.95;111556;1195;139462;-75
2021/11/08 03:24:15;;;;;;;0.40;0.40;;;;;;;9.33;67.70;99986.17;111742;1195;95860;-76
2021/11/08 03:26:48;;;;;;;0.50;0.40;;;;;;;9.33;67.63;99989.89;111525;1194;138396;-76
2021/11/08 03:29:16;;;;;;;0.50;0.50;;;;;;;9.35;67.65;99996.22;111689;1193;108559;-75
2021/11/08 03:31:47;;;;;;;0.40;0.40;;;;;;;9.32;67.46;100001.78;111688;1195;94999;-75
2021/11/08 03:34:15;;;;;;;0.50;0.50;;;;;;;9.28;67.78;100007.59;111497;1196;137697;-76
2021/11/08 03:36:44;;;;;;;0.50;0.40;;;;;;;9.31;67.67;100009.43;111769;1195;108672;-75
2021/11/08 03:39:14;;;;;;;0.40;0.40;;;;;;;9.35;67.54;100013.91;111449;1197;140165;-75
2021/11/08 03:41:42;;;;;;;0.50;0.40;;;;;;;9.36;67.50;100014.23;111955;1195;95544;-76
2021/11/08 03:44:10;;;;;;;0.40;0.40;;;;;;;9.35;67.46;100018.17;112129;1195;95428;-77
2021/11/08 03:46:38;;;;;;;0.50;0.40;;;;;;;9.37;67.48;100019.03;111740;1195;137135;-76
2021/11/08 03:49:06;;;;;;;0.40;0.40;;;;;;;9.49;67.52;100018.89;111648;1197;109905;-76
2021/11/08 03:51:34;;;;;;;0.40;0.40;;;;;;;9.50;67.19;100020.61;111696;1195;139861;-77
2021/11/08 03:54:04;;;;;;;0.40;0.40;;;;;;;9.47;67.37;100021.41;111745;1193;94930;-75
2021/11/08 03:56:32;;;;;;;0.40;0.40;;;;;;;9.43;67.62;100027.70;111616;1199;138200;-76
2021/11/08 03:59:01;;;;;;;0.40;0.30;;;;;;;9.44;67.81;100028.94;111984;1196;109545;-75
2021/11/08 04:01:35;;;;;;;0.40;0.30;;;;;;;9.45;67.90;100029.61;111560;1196;95091;-76
2021/11/08 04:04:05;;;;;;;0.50;0.40;;;;;;;9.48;68.02;100025.45;111542;1196;137915;-76
2021/11/08 04:06:35;;;;;;;0.40;0.40;;;;;;;9.49;68.56;100026.14;111592;1193;107406;-76
2021/11/08 04:09:06;;;;;;;0.40;0.30;;;;;;;9.46;68.93;100031.16;111595;1196;138370;-76
2021/11/08 04:11:35;;;;;;;0.50;0.40;;;;;;;9.42;68.85;100038.18;111825;1193;95251;-76
2021/11/08 04:14:03;;;;;;;0.40;0.40;;;;;;;9.40;68.75;100036.84;111885;1193;95992;-75
2021/11/08 04:16:33;;;;;;;0.40;0.40;;;;;;;9.43;68.63;100037.10;111694;1193;138742;-76
2021/11/08 04:19:02;;;;;;;0.40;0.30;;;;;;;9.47;68.70;100037.70;111501;1197;110273;-76
2021/11/08 04:21:33;;;;;;;0.40;0.40;;;;;;;9.45;68.64;100036.67;111451;1195;139968;-76
2021/11/08 04:24:01;;;;;;;0.40;0.40;;;;;;;9.46;68.82;100038.44;112017;1193;95001;-76
2021/11/08 04:26:32;;;;;;;0.50;0.40;;;;;;;9.51;68.42;100041.83;111532;1197;139649;-75
2021/11/08 04:29:04;;;;;;;0.40;0.30;;;;;;;9.61;68.28;100041.92;111618;1195;109387;-74
2021/11/08 04:31:34;;;;;;;0.40;0.40;;;;;;;9.77;68.04;100042.02;111653;1193;95339;-74
2021/11/08 04:34:11;;;;;;;0.40;0.40;;;;;;;9.72;67.37;100042.30;112254;1193;138659;-76
2021/11/08 04:50:12;;;;;;;0.40;0.40;;;;;;;9.62;67.44;100063.52;111770;1197;109540;-76
2021/11/08 05:30:45;;;;;;;0.40;0.30;;;;;;;9.47;66.87;100086.45;111772;1197;107676;-77
2021/11/08 05:33:14;;;;;;;0.40;0.40;;;;;;;9.54;66.53;100092.45;111686;1197;139444;-77
2021/11/08 05:35:42;;;;;;;0.40;0.40;;;;;;;9.49;66.42;100094.19;111622;1196;94963;-77
2021/11/08 05:38:12;;;;;;;0.40;0.40;;;;;;;9.41;66.72;100099.70;111668;1195;95063;-77
2021/11/08 05:40:40;;;;;;;0.40;0.40;;;;;;;9.35;66.71;100101.27;111641;1193;138920;-76
2021/11/08 05:43:08;;;;;;;0.40;0.40;;;;;;;9.39;66.90;100105.09;111911;1193;109232;-75
2021/11/08 05:45:38;;;;;;;0.40;0.40;;;;;;;9.34;66.67;100106.60;111590;1193;138996;-77
2021/11/08 05:48:08;;;;;;;0.40;0.30;;;;;;;9.30;66.95;100104.06;111797;1195;95435;-76
2021/11/08 05:50:39;;;;;;;0.50;0.40;;;;;;;9.35;66.71;100108.36;112291;1195;107387;-76
2021/11/08 05:53:10;;;;;;;0.50;0.40;;;;;;;9.35;66.57;100110.32;111607;1195;139279;-76
2021/11/08 06:50:48;;;;;;;0.50;0.40;;;;;;;9.51;67.76;100185.04;111659;1193;94887;-76
2021/11/08 06:53:18;;;;;;;0.40;0.40;;;;;;;9.46;68.11;100184.81;111689;1195;138537;-77
2021/11/08 06:55:50;;;;;;;0.40;0.40;;;;;;;9.46;68.19;100183.92;111894;1196;108510;-77
2021/11/08 06:58:20;;;;;;;0.40;0.40;;;;;;;9.44;68.19;100187.54;111483;1195;137801;-78
2021/11/08 07:00:49;;;;;;;0.40;0.40;;;;;;;9.45;68.20;100190.16;111736;1195;95061;-75
2021/11/08 07:03:17;;;;;;;0.40;0.40;;;;;;;9.49;67.90;100189.19;111741;1195;138486;-77
2021/11/08 07:05:44;;;;;;;0.40;0.40;;;;;;;9.54;67.81;100190.81;111533;1193;108659;-75
2021/11/08 07:08:13;;;;;;;0.50;0.40;;;;;;;9.54;67.48;100192.60;111572;1196;108647;-76
2021/11/08 07:10:43;;;;;;;0.50;0.50;;;;;;;9.53;67.61;100198.65;111712;1193;137666;-76
2021/11/08 07:13:12;;;;;;;0.40;0.40;;;;;;;9.53;67.50;100196.32;111849;1194;95416;-76
2021/11/08 07:15:41;;;;;;;0.40;0.40;;;;;;;9.61;67.51;100200.39;111748;1193;138774;-75
2021/11/08 07:18:15;;;;;;;0.40;0.40;;;;;;;9.62;66.95;100199.66;111771;1196;108517;-77
2021/11/08 07:20:43;;;;;;;0.40;0.30;;;;;;;9.58;67.31;100196.04;111728;1196;94905;-77
2021/11/08 07:23:11;;;;;;;0.40;0.40;;;;;;;9.64;67.19;100201.20;111752;1195;137417;-75
2021/11/08 07:25:39;;;;;;;0.40;0.40;;;;;;;9.72;67.05;100203.46;111771;1194;108696;-76
2021/11/08 07:28:11;;;;;;;0.40;0.30;;;;;;;9.62;67.04;100208.86;111732;1200;138203;-75
2021/11/08 07:30:42;;;;;;;0.50;0.40;;;;;;;9.53;67.39;100213.88;111962;1196;94941;-77
2021/11/08 07:33:10;;;;;;;0.40;0.40;;;;;;;9.51;67.64;100215.69;111943;1193;94859;-76
2021/11/08 07:35:38;;;;;;;0.50;0.50;;;;;;;9.53;67.90;100222.58;111546;1195;139344;-75
2021/11/08 07:38:06;;;;;;;0.40;0.30;;;;;;;9.50;67.92;100219.80;111654;1193;108207;-76
2021/11/08 07:40:34;;;;;;;0.40;0.40;;;;;;;9.56;67.98;100218.60;111723;1195;137733;-77
2021/11/08 07:43:02;;;;;;;0.40;0.40;;;;;;;9.60;68.10;100220.10;111647;1197;95368;-76
2021/11/08 07:45:30;;;;;;;0.40;0.40;;;;;;;9.61;68.38;100226.63;111799;1194;138915;-76
2021/11/08 07:47:58;;;;;;;0.40;0.40;;;;;;;9.61;68.74;100227.15;111696;1196;109421;-75
2021/11/08 07:50:38;;;;;;;0.40;0.30;;;;;;;9.58;68.92;100230.42;111794;1193;94907;-76
2021/11/08 07:53:06;;;;;;;0.40;0.40;;;;;;;9.56;69.26;100234.37;111724;1195;137543;-77
2021/11/08 07:55:34;;;;;;;0.40;0.40;;;;;;;9.62;69.38;100238.85;111706;1196;106548;-76
2021/11/08 07:58:04;;;;;;;0.40;0.30;;;;;;;9.67;69.34;100240.48;111823;1195;139523;-76
2021/11/08 08:00:34;;;;;;;0.50;0.40;;;;;;;9.75;69.43;100246.48;111749;1195;96326;-75
2021/11/08 08:03:03;;;;;;;0.40;0.30;;;;;;;9.71;69.32;100247.83;112471;1195;94908;-76
2021/11/08 08:05:32;;;;;;;0.40;0.30;;;;;;;9.72;69.41;100249.57;111564;1194;139001;-77
2021/11/08 08:08:00;;;;;;;0.40;0.40;;;;;;;9.78;69.41;100246.94;111674;1193;109268;-76
2021/11/08 08:10:29;;;;;;;0.40;0.30;;;;;;;9.79;69.24;100248.67;111887;1193;138739;-76
2021/11/08 08:12:57;;;;;;;0.40;0.30;;;;;;;9.75;69.32;100251.80;111578;1195;95356;-76
2021/11/08 08:15:25;;;;;;;0.40;0.30;;;;;;;9.80;69.51;100253.46;111613;1193;138053;-75
2021/11/08 08:17:53;;;;;;;0.40;0.30;;;;;;;9.75;69.30;100257.30;111781;1195;109540;-76
2021/11/08 08:20:23;;;;;;;0.40;0.30;;;;;;;9.66;69.43;100256.10;111676;1195;94970;-75
2021/11/08 08:22:51;;;;;;;0.40;0.30;;;;;;;9.61;69.70;100260.30;111607;1193;138488;-76
2021/11/08 08:25:19;;;;;;;0.40;0.30;;;;;;;9.58;69.84;100265.33;111669;1197;107557;-75
2021/11/08 08:27:48;;;;;;;0.40;0.40;;;;;;;9.54;70.10;100265.60;111601;1194;137189;-76
2021/11/08 08:30:16;;;;;;;0.40;0.30;;;;;;;9.52;70.14;100268.85;111719;1195;94806;-76
2021/11/08 08:32:44;;;;;;;0.40;0.30;;;;;;;9.62;69.85;100269.84;111637;1196;96035;-74
2021/11/08 08:35:11;;;;;;;0.40;0.30;;;;;;;9.69;69.93;100267.55;111495;1195;137992;-74
2021/11/08 08:37:39;;;;;;;0.40;0.30;;;;;;;9.75;69.99;100268.83;111713;1195;109810;-76
2021/11/08 08:40:08;;;;;;;0.40;0.40;;;;;;;9.84;69.90;100270.71;111585;1195;139513;-76
2021/11/08 08:42:36;;;;;;;0.40;0.30;;;;;;;9.91;69.90;100274.81;112166;1193;96172;-76
2021/11/08 08:45:05;;;;;;;0.40;0.30;;;;;;;9.91;70.54;100273.91;111845;1195;107503;-77
2021/11/08 08:47:33;;;;;;;0.40;0.40;;;;;;;9.97;70.48;100276.77;111643;1193;138674;-77
2021/11/08 08:50:03;;;;;;;0.40;0.40;;;;;;;9.99;70.57;100278.48;112095;1194;95870;-75
2021/11/08 08:52:31;;;;;;;0.40;0.30;;;;;;;10.07;70.40;100277.59;111833;1195;138683;-76
2021/11/08 08:54:59;;;;;;;0.40;0.30;;;;;;;10.19;69.96;100282.95;111743;1195;108017;-77
2021/11/08 08:57:26;;;;;;;0.40;0.30;;;;;;;10.24;69.64;100282.11;111744;1193;138211;-76
2021/11/08 09:00:00;;;;;;;0.40;0.30;;;;;;;10.25;69.34;100286.86;112256;1195;94929;-75
2021/11/08 09:02:49;;;;;;;0.40;0.30;;;;;;;10.27;69.13;100293.93;111881;1195;94992;-75
2021/11/08 09:05:18;;;;;;;0.40;0.30;;;;;;;10.29;69.03;100297.73;112115;1195;138479;-75
2021/11/08 09:07:50;;;;;;;0.40;0.30;;;;;;;10.19;69.13;100300.67;111666;1194;108502;-75
2021/11/08 09:10:20;;;;;;;0.40;0.30;;;;;;;10.15;69.42;100308.96;111647;1195;138291;-76
2021/11/08 09:12:49;;;;;;;0.40;0.40;;;;;;;10.16;69.46;100307.67;111837;1193;95307;-76
2021/11/08 09:15:17;;;;;;;0.40;0.30;;;;;;;10.19;69.72;100313.13;111295;1195;138388;-75
2021/11/08 09:17:45;;;;;;;0.40;0.30;;;;;;;10.21;69.84;100320.67;111532;1195;109450;-77
2021/11/08 09:20:14;;;;;;;0.40;0.30;;;;;;;10.22;70.02;100317.46;111564;1195;94798;-76
2021/11/08 09:22:44;;;;;;;0.40;0.30;;;;;;;10.24;70.16;100319.92;111493;1195;138078;-77
2021/11/08 09:25:12;;;;;;;0.40;0.30;;;;;;;10.28;70.17;100324.23;111653;1194;108493;-77
2021/11/08 09:27:43;;;;;;;0.40;0.30;;;;;;;10.31;70.22;100324.68;111373;1195;139738;-75
2021/11/08 09:30:13;;;;;;;0.40;0.30;;;;;;;10.33;70.03;100327.11;111732;1195;94896;-78
2021/11/08 09:32:42;;;;;;;0.40;0.30;;;;;;;10.28;70.23;100329.92;111585;1195;94901;-77
2021/11/08 09:35:10;;;;;;;0.40;0.30;;;;;;;10.24;70.25;100332.14;111628;1193;139198;-76
2021/11/08 09:37:43;;;;;;;0.40;0.30;;;;;;;10.18;70.55;100334.23;111673;1193;108452;-76
2021/11/08 09:40:14;;;;;;;0.40;0.30;;;;;;;10.26;70.55;100333.17;111672;1194;139549;-76
2021/11/08 09:42:43;;;;;;;0.40;0.30;;;;;;;10.30;70.43;100336.98;111558;1195;94919;-78
2021/11/08 09:45:12;;;;;;;0.40;0.30;;;;;;;10.32;70.39;100334.23;111674;1193;107615;-77
2021/11/08 09:47:40;;;;;;;0.40;0.30;;;;;;;10.37;70.04;100334.50;111666;1196;138635;-76
2021/11/08 09:50:11;;;;;;;0.40;0.30;;;;;;;10.38;70.04;100337.30;111774;1194;95948;-76
2021/11/08 09:52:43;;;;;;;0.40;0.30;;;;;;;10.43;69.99;100343.05;111632;1193;138990;-77
2021/11/08 09:55:14;;;;;;;0.40;0.30;;;;;;;10.46;69.99;100345.97;111387;1195;107513;-78
2021/11/08 09:58:03;;;;;;;0.40;0.30;;;;;;;10.46;69.89;100349.88;111470;1193;138252;-77
2021/11/08 10:00:37;;;;;;;0.40;0.30;;;;;;;10.47;70.02;100350.02;111812;1193;94986;-76
2021/11/08 10:03:12;;;;;;;0.40;0.30;;;;;;;10.48;70.16;100352.66;111714;1193;95120;-74
2021/11/08 10:05:42;;;;;;;0.40;0.30;;;;;;;10.46;70.15;100352.38;111616;1193;137289;-77
2021/11/08 10:08:39;;;;;;;0.40;0.30;;;;;;;10.46;70.15;100354.16;111529;1201;108986;-77
2021/11/08 10:11:10;;;;;;;0.40;0.30;;;;;;;10.42;70.22;100353.54;111433;1195;139346;-77
2021/11/08 10:13:40;;;;;;;0.40;0.30;;;;;;;10.47;70.19;100358.55;111509;1195;94962;-75
2021/11/08 10:16:15;;;;;;;0.40;0.30;;;;;;;10.40;70.00;100362.64;111429;1194;138541;-76
2021/11/08 10:18:47;;;;;;;0.40;0.30;;;;;;;10.34;70.14;100365.44;111619;1193;109640;-76
2021/11/08 10:21:19;;;;;;;0.40;0.30;;;;;;;10.40;70.04;100362.45;111638;1195;95593;-75
2021/11/08 10:23:50;;;;;;;0.40;0.30;;;;;;;10.47;70.05;100370.98;111481;1194;138336;-77
2021/11/08 10:26:20;;;;;;;0.40;0.30;;;;;;;10.55;69.97;100368.29;111796;1194;108653;-77
2021/11/08 10:29:02;;;;;;;0.40;0.30;;;;;;;10.61;69.77;100370.77;111824;1193;138390;-77
2021/11/08 10:31:35;;;;;;;0.40;0.30;;;;;;;10.57;69.20;100370.01;111994;1195;95719;-76
2021/11/08 10:34:07;;;;;;;0.40;0.30;;;;;;;10.54;69.35;100372.58;111584;1195;138474;-75
2021/11/08 10:36:35;;;;;;;0.40;0.30;;;;;;;10.51;69.21;100375.48;111586;1195;107550;-76
2021/11/08 10:39:06;;;;;;;0.40;0.30;;;;;;;10.41;69.46;100375.75;111633;1195;107532;-77
2021/11/08 10:41:36;;;;;;;0.40;0.30;;;;;;;10.39;69.53;100373.85;111380;1195;138973;-76
2021/11/08 10:44:08;;;;;;;0.40;0.30;;;;;;;10.44;69.71;100373.73;111498;1195;96631;-75
2021/11/08 10:46:40;;;;;;;0.40;0.30;;;;;;;10.51;69.48;100377.61;111448;1195;139008;-76
2021/11/08 10:49:12;;;;;;;0.40;0.30;;;;;;;10.55;69.20;100375.36;111723;1195;108447;-76
2021/11/08 10:51:44;;;;;;;0.40;0.30;;;;;;;10.61;69.00;100381.08;111557;1195;138504;-76
2021/11/08 10:54:26;;;;;;;0.40;0.30;;;;;;;10.61;69.09;100378.59;111726;1193;95819;-75
2021/11/08 10:56:58;;;;;;;0.40;0.30;;;;;;;10.65;69.22;100379.19;111680;1194;108528;-78
2021/11/08 10:59:42;;;;;;;0.40;0.30;;;;;;;10.66;69.41;100381.28;111339;1195;138980;-76
2021/11/08 11:02:13;;;;;;;0.40;0.30;;;;;;;10.74;69.18;100384.45;111409;1195;94984;-76
2021/11/08 11:04:46;;;;;;;0.40;0.30;;;;;;;10.76;68.82;100381.77;111552;1195;139308;-76
2021/11/08 11:07:26;;;;;;;0.40;0.30;;;;;;;10.71;68.74;100381.00;111647;1193;109932;-77
2021/11/08 11:10:06;;;;;;;0.40;0.30;;;;;;;10.67;69.30;100382.67;111482;1195;138361;-77
2021/11/08 11:12:35;;;;;;;0.40;0.30;;;;;;;10.73;69.26;100383.06;111433;1195;95482;-76
2021/11/08 11:15:06;;;;;;;0.40;0.30;;;;;;;10.73;69.16;100385.92;111438;1195;94906;-76
2021/11/08 11:17:39;;;;;;;0.40;0.30;;;;;;;10.69;69.28;100384.77;111436;1195;140800;-77
2021/11/08 11:20:13;;;;;;;0.40;0.30;;;;;;;10.65;69.71;100387.71;111645;1195;108554;-76
2021/11/08 11:22:59;;;;;;;0.40;0.30;;;;;;;10.68;69.86;100385.86;111429;1196;138136;-78
2021/11/08 11:25:29;;;;;;;0.40;0.30;;;;;;;10.69;69.99;100387.08;111610;1195;95063;-78
2021/11/08 11:28:01;;;;;;;0.40;0.30;;;;;;;10.71;70.03;100391.09;111567;1193;139291;-78
2021/11/08 11:30:40;;;;;;;0.40;0.30;;;;;;;10.72;70.08;100392.67;111541;1195;108085;-78
2021/11/08 11:33:12;;;;;;;0.40;0.30;;;;;;;10.77;70.24;100394.67;111565;1195;94908;-78
2021/11/08 11:35:45;;;;;;;0.40;0.30;;;;;;;10.83;70.07;100393.98;111467;1195;139085;-78
2021/11/08 11:38:25;;;;;;;0.40;0.30;;;;;;;10.83;69.91;100387.77;111597;1195;108572;-78
2021/11/08 11:40:57;;;;;;;0.40;0.30;;;;;;;10.76;69.85;100390.80;111546;1195;138981;-76
2021/11/08 11:43:35;;;;;;;0.40;0.30;;;;;;;10.73;69.66;100391.77;111689;1195;95348;-78
2021/11/08 11:46:06;;;;;;;0.40;0.30;;;;;;;10.74;69.81;100392.65;111660;1195;139065;-75
2021/11/08 11:48:36;;;;;;;0.40;0.30;;;;;;;10.72;69.63;100394.80;111709;1195;107513;-76
2021/11/08 11:51:16;;;;;;;0.40;0.30;;;;;;;10.72;69.72;100399.42;112253;1195;109539;-76
2021/11/08 11:53:45;;;;;;;0.40;0.30;;;;;;;10.73;69.60;100405.11;111507;1193;138378;-77
2021/11/08 11:56:14;;;;;;;0.40;0.30;;;;;;;10.74;69.67;100408.62;111593;1193;95012;-76
2021/11/08 11:58:46;;;;;;;0.40;0.30;;;;;;;10.74;69.56;100411.27;111407;1195;138937;-79
2021/11/08 12:01:17;;;;;;;0.40;0.30;;;;;;;10.70;69.35;100407.11;111644;1195;108579;-76
2021/11/08 12:03:46;;;;;;;0.40;0.30;;;;;;;10.71;69.48;100410.82;111929;1193;138415;-77
2021/11/08 12:06:17;;;;;;;0.40;0.30;;;;;;;10.74;69.48;100412.00;111585;1195;96281;-76
2021/11/08 12:08:46;;;;;;;0.40;0.30;;;;;;;10.82;69.27;100411.95;111796;1195;108612;-77
2021/11/08 12:11:14;;;;;;;0.40;0.30;;;;;;;10.86;69.21;100418.59;111483;1196;140251;-76
2021/11/08 12:13:54;;;;;;;0.40;0.30;;;;;;;10.91;69.18;100416.86;111641;1195;94890;-74
2021/11/08 12:16:28;;;;;;;0.40;0.30;;;;;;;10.93;68.88;100417.88;111880;1195;139011;-75
2021/11/08 12:18:59;;;;;;;0.40;0.30;;;;;;;10.86;69.30;100420.02;111671;1195;109641;-76
2021/11/08 12:21:32;;;;;;;0.40;0.30;;;;;;;10.87;69.46;100420.70;111568;1194;109130;-76
2021/11/08 12:24:03;;;;;;;0.40;0.30;;;;;;;10.83;69.72;100423.10;111553;1195;138137;-75
2021/11/08 12:26:32;;;;;;;0.40;0.30;;;;;;;10.86;69.78;100421.60;111943;1195;94910;-75
2021/11/08 12:29:19;;;;;;;0.40;0.30;;;;;;;10.83;69.99;100420.44;111589;1195;138292;-76
2021/11/08 12:32:03;;;;;;;0.40;0.30;;;;;;;10.80;69.64;100423.00;111726;1194;108603;-76
2021/11/08 12:34:41;;;;;;;0.40;0.30;;;;;;;10.82;69.78;100425.98;111620;1195;138378;-76
2021/11/08 12:37:09;;;;;;;0.40;0.30;;;;;;;10.78;69.95;100429.64;111880;1193;95424;-77
2021/11/08 12:39:37;;;;;;;0.40;0.30;;;;;;;10.74;70.31;100431.52;111835;1193;108645;-77
2021/11/08 12:42:10;;;;;;;0.40;0.30;;;;;;;10.79;70.16;100432.10;111648;1193;139067;-78
2021/11/08 12:44:46;;;;;;;0.40;0.30;;;;;;;10.87;70.19;100431.90;111658;1195;94943;-77
2021/11/08 12:47:15;;;;;;;0.40;0.30;;;;;;;10.92;70.04;100433.89;111850;1195;139156;-76
2021/11/08 12:49:51;;;;;;;0.40;0.30;;;;;;;10.96;70.13;100438.20;111880;1195;108412;-77
2021/11/08 12:52:22;;;;;;;0.40;0.30;;;;;;;11.02;69.94;100435.20;111529;1194;139999;-76
2021/11/08 12:54:53;;;;;;;0.40;0.30;;;;;;;11.05;69.81;100434.96;111689;1193;95384;-76
2021/11/08 12:57:24;;;;;;;0.40;0.30;;;;;;;11.03;70.03;100433.94;112334;1194;94887;-75
2021/11/08 12:59:55;;;;;;;0.40;0.30;;;;;;;11.09;69.66;100438.91;111471;1195;138790;-77
2021/11/08 13:02:28;;;;;;;0.40;0.30;;;;;;;11.02;69.76;100445.33;111647;1193;109650;-77
2021/11/08 13:04:59;;;;;;;0.40;0.30;;;;;;;11.03;69.74;100449.39;111856;1193;139007;-77
2021/11/08 13:07:29;;;;;;;0.40;0.20;;;;;;;11.00;69.77;100448.94;111713;1195;94891;-75
2021/11/08 13:09:57;;;;;;;0.40;0.30;;;;;;;10.97;69.61;100454.35;111423;1194;140537;-76
2021/11/08 13:12:40;;;;;;;0.40;0.30;;;;;;;10.99;69.61;100455.02;111602;1193;108993;-76
2021/11/08 13:15:12;;;;;;;0.40;0.30;;;;;;;11.03;69.71;100461.13;111671;1195;95025;-76
2021/11/08 13:17:51;;;;;;;0.40;0.30;;;;;;;11.13;69.62;100457.64;111628;1195;138057;-77
2021/11/08 13:20:25;;;;;;;0.40;0.30;;;;;;;11.12;69.25;100462.13;111639;1195;108574;-76
2021/11/08 13:22:59;;;;;;;0.40;0.30;;;;;;;11.12;69.26;100463.00;111561;1195;140787;-77
2021/11/08 13:25:35;;;;;;;0.40;0.30;;;;;;;11.09;69.30;100464.34;111632;1194;94903;-76